NCAR-RAP Real-Time Weather Data

Output produced by METARs form (08 February 2016  07:50 UTC)
found at http://weather.rap.ucar.edu/surface/
 
Conditions at: KALB observed 08 February 2016  06:51 UTC
Temperature: -2.8°C (27°F)
Dewpoint: -6.7°C (20°F) [RH = 74%]
Pressure (altimeter): 29.96 inches Hg (1014.6 mb)
[Sea-level pressure: 1014.7 mb]
Winds: from the NNW (340 degrees) at 5 MPH (4 knots; 2.1 m/s)
Visibility: 10 or more miles (16+ km)
Ceiling: 26000 feet AGL
Clouds: broken clouds at 26000 feet AGL
Present Weather: no significant weather observed at this time
KALB 080651Z 34004KT 10SM BKN260 M03/M07 A2996 RMK AO2 SLP147 T10281067

Conditions at: KALB observed 08 February 2016  05:51 UTC
Temperature: -2.2°C (28°F)
Dewpoint: -6.7°C (20°F) [RH = 71%]
Pressure (altimeter): 29.99 inches Hg (1015.7 mb)
[Sea-level pressure: 1015.8 mb]
Winds: from the NNE (20 degrees) at 5 MPH (4 knots; 2.1 m/s)
Visibility: 10 or more miles (16+ km)
Ceiling: at least 12,000 feet AGL
Clouds: scattered clouds at 26000 feet AGL
Present Weather: no significant weather observed at this time
KALB 080551Z 02004KT 10SM SCT260 M02/M07 A2999 RMK AO2 SLP158 SCT V BKN T10221067 10033 21028 58016

Conditions at: KALB observed 08 February 2016  04:51 UTC
Temperature: -2.2°C (28°F)
Dewpoint: -6.1°C (21°F) [RH = 75%]
Pressure (altimeter): 30.01 inches Hg (1016.3 mb)
[Sea-level pressure: 1016.6 mb]
Winds: from the N (350 degrees) at 3 MPH (3 knots; 1.6 m/s)
Visibility: 10 or more miles (16+ km)
Ceiling: at least 12,000 feet AGL
Clouds: scattered clouds at 25000 feet AGL
Present Weather: no significant weather observed at this time
KALB 080451Z 35003KT 10SM SCT250 M02/M06 A3001 RMK AO2 SLP166 SCT V BKN T10221061 400781044

Conditions at: KALB observed 08 February 2016  03:51 UTC
Temperature: -1.1°C (30°F)
Dewpoint: -5.6°C (22°F) [RH = 71%]
Pressure (altimeter): 30.02 inches Hg (1016.7 mb)
[Sea-level pressure: 1016.9 mb]
Winds: from the N (10 degrees) at 3 MPH (3 knots; 1.6 m/s)
Visibility: 10 or more miles (16+ km)
Ceiling: 25000 feet AGL
Clouds: broken clouds at 25000 feet AGL
Present Weather: no significant weather observed at this time
KALB 080351Z 01003KT 10SM BKN250 M01/M06 A3002 RMK AO2 SLP169 T10111056

Conditions at: KALB observed 08 February 2016  02:51 UTC
Temperature: 0.0°C (32°F)
Dewpoint: -5.0°C (23°F) [RH = 69%]
Pressure (altimeter): 30.04 inches Hg (1017.4 mb)
[Sea-level pressure: 1017.5 mb]
Winds: from the N (10 degrees) at 7 MPH (6 knots; 3.1 m/s)
Visibility: 10 or more miles (16+ km)
Ceiling: 25000 feet AGL
Clouds: broken clouds at 25000 feet AGL
Present Weather: no significant weather observed at this time
KALB 080251Z 01006KT 10SM BKN250 00/M05 A3004 RMK AO2 SLP175 T00001050 58001

Conditions at: KALB observed 08 February 2016  01:51 UTC
Temperature: 1.1°C (34°F)
Dewpoint: -5.0°C (23°F) [RH = 64%]
Pressure (altimeter): 30.04 inches Hg (1017.4 mb)
[Sea-level pressure: 1017.5 mb]
Winds: from the N (10 degrees) at 7 MPH (6 knots; 3.1 m/s)
Visibility: 10 or more miles (16+ km)
Ceiling: 25000 feet AGL
Clouds: broken clouds at 25000 feet AGL
Present Weather: no significant weather observed at this time
KALB 080151Z 01006KT 10SM BKN250 01/M05 A3004 RMK AO2 SLP175 T00111050

Conditions at: KALB observed 08 February 2016  00:51 UTC
Temperature: 2.2°C (36°F)
Dewpoint: -6.1°C (21°F) [RH = 54%]
Pressure (altimeter): 30.05 inches Hg (1017.7 mb)
[Sea-level pressure: 1018.1 mb]
Winds: from the NE (50 degrees) at 6 MPH (5 knots; 2.6 m/s)
Visibility: 10 or more miles (16+ km)
Ceiling: 25000 feet AGL
Clouds: broken clouds at 25000 feet AGL
Present Weather: no significant weather observed at this time
KALB 080051Z 05005KT 10SM BKN250 02/M06 A3005 RMK AO2 SLP181 T00221061

Conditions at: KALB observed 07 February 2016  23:51 UTC
Temperature: 2.8°C (37°F)
Dewpoint: -6.7°C (20°F) [RH = 50%]
Pressure (altimeter): 30.04 inches Hg (1017.4 mb)
[Sea-level pressure: 1017.7 mb]
Winds: from the NNE (20 degrees) at 7 MPH (6 knots; 3.1 m/s)
Visibility: 10 or more miles (16+ km)
Ceiling: 25000 feet AGL
Clouds: broken clouds at 25000 feet AGL
Present Weather: no significant weather observed at this time
KALB 072351Z 02006KT 10SM BKN250 03/M07 A3004 RMK AO2 SLP177 T00281067 10078 20011 58007

Conditions at: KALB observed 07 February 2016  22:51 UTC
Temperature: 4.4°C (40°F)
Dewpoint: -7.2°C (19°F) [RH = 43%]
Pressure (altimeter): 30.05 inches Hg (1017.7 mb)
[Sea-level pressure: 1018.0 mb]
Winds: from the N (360 degrees) at 7 MPH (6 knots; 3.1 m/s)
Visibility: 10 or more miles (16+ km)
Ceiling: 25000 feet AGL
Clouds: broken clouds at 25000 feet AGL
Present Weather: no significant weather observed at this time
KALB 072251Z 36006KT 10SM BKN250 04/M07 A3005 RMK AO2 SLP180 T00441072

Conditions at: KALB observed 07 February 2016  21:51 UTC
Temperature: 6.1°C (43°F)
Dewpoint: -7.2°C (19°F) [RH = 38%]
Pressure (altimeter): 30.06 inches Hg (1018.0 mb)
[Sea-level pressure: 1018.0 mb]
Winds: from the NE (50 degrees) at 3 MPH (3 knots; 1.6 m/s)
Visibility: 10 or more miles (16+ km)
Ceiling: at least 12,000 feet AGL
Clouds: scattered clouds at 25000 feet AGL
Present Weather: no significant weather observed at this time
KALB 072151Z 05003KT 10SM SCT250 06/M07 A3006 RMK AO2 SLP180 T00611072

Conditions at: KALB observed 07 February 2016  20:51 UTC
Temperature: 7.2°C (45°F)
Dewpoint: -7.2°C (19°F) [RH = 35%]
Pressure (altimeter): 30.06 inches Hg (1018.0 mb)
[Sea-level pressure: 1018.2 mb]
Winds: from the E (90 degrees) at 3 MPH (3 knots; 1.6 m/s)
Visibility: 10 or more miles (16+ km)
Ceiling: at least 12,000 feet AGL
Clouds: few clouds at 20000 feet AGL
Present Weather: no significant weather observed at this time
KALB 072051Z 09003KT 10SM FEW200 07/M07 A3006 RMK AO2 SLP182 T00721072 56025

Conditions at: KALB observed 07 February 2016  19:51 UTC
Temperature: 7.2°C (45°F)
Dewpoint: -7.2°C (19°F) [RH = 35%]
Pressure (altimeter): 30.07 inches Hg (1018.4 mb)
[Sea-level pressure: 1018.5 mb]
Winds: calm
Visibility: 10 or more miles (16+ km)
Ceiling: at least 12,000 feet AGL
Clouds: few clouds at 4500 feet AGL
few clouds at 20000 feet AGL
Present Weather: no significant weather observed at this time
KALB 071951Z 00000KT 10SM FEW045 FEW200 07/M07 A3007 RMK AO2 SLP185 T00721072